sensor_id;sensor_type;location;lat;lon;timestamp;pressure;altitude;pressure_sealevel;temperature;humidity
18533;BME280;9396;51.510;11.934;2023-03-16T00:02:13;101154.31;;;1.45;95.48
18533;BME280;9396;51.510;11.934;2023-03-16T00:04:40;101156.84;;;1.47;95.43
18533;BME280;9396;51.510;11.934;2023-03-16T00:07:09;101155.69;;;1.52;95.39
18533;BME280;9396;51.510;11.934;2023-03-16T00:09:37;101156.22;;;1.59;94.38
18533;BME280;9396;51.510;11.934;2023-03-16T00:12:06;101158.75;;;1.60;94.29
18533;BME280;9396;51.510;11.934;2023-03-16T00:14:33;101164.84;;;1.61;94.87
18533;BME280;9396;51.510;11.934;2023-03-16T00:17:00;101165.25;;;1.70;94.00
18533;BME280;9396;51.510;11.934;2023-03-16T00:19:30;101166.25;;;1.68;93.44
18533;BME280;9396;51.510;11.934;2023-03-16T00:21:59;101164.63;;;1.65;93.24
18533;BME280;9396;51.510;11.934;2023-03-16T00:24:27;101160.78;;;1.55;94.05
18533;BME280;9396;51.510;11.934;2023-03-16T00:26:54;101164.56;;;1.50;93.84
18533;BME280;9396;51.510;11.934;2023-03-16T00:29:20;101162.25;;;1.44;94.01
18533;BME280;9396;51.510;11.934;2023-03-16T00:31:47;101164.31;;;1.37;94.36
18533;BME280;9396;51.510;11.934;2023-03-16T00:34:14;101167.78;;;1.38;93.66
18533;BME280;9396;51.510;11.934;2023-03-16T00:36:41;101161.78;;;1.36;94.35
18533;BME280;9396;51.510;11.934;2023-03-16T00:39:07;101168.66;;;1.38;94.76
18533;BME280;9396;51.510;11.934;2023-03-16T00:41:37;101169.66;;;1.36;93.81
18533;BME280;9396;51.510;11.934;2023-03-16T00:44:04;101168.13;;;1.32;93.73
18533;BME280;9396;51.510;11.934;2023-03-16T00:46:30;101169.59;;;1.01;94.79
18533;BME280;9396;51.510;11.934;2023-03-16T00:48:57;101166.44;;;0.95;95.64
18533;BME280;9396;51.510;11.934;2023-03-16T00:51:24;101167.22;;;0.80;96.72
18533;BME280;9396;51.510;11.934;2023-03-16T00:53:51;101167.38;;;0.94;96.76
18533;BME280;9396;51.510;11.934;2023-03-16T00:56:17;101169.13;;;1.12;95.53
18533;BME280;9396;51.510;11.934;2023-03-16T00:58:45;101164.25;;;1.22;95.51
18533;BME280;9396;51.510;11.934;2023-03-16T01:01:14;101170.25;;;1.24;94.82
18533;BME280;9396;51.510;11.934;2023-03-16T01:03:40;101159.78;;;1.24;94.83
18533;BME280;9396;51.510;11.934;2023-03-16T01:06:10;101170.19;;;1.25;93.98
18533;BME280;9396;51.510;11.934;2023-03-16T01:08:37;101172.88;;;1.06;94.43
18533;BME280;9396;51.510;11.934;2023-03-16T01:11:05;101166.00;;;1.04;94.53
18533;BME280;9396;51.510;11.934;2023-03-16T01:13:33;101160.31;;;1.13;94.96
18533;BME280;9396;51.510;11.934;2023-03-16T01:16:01;101170.34;;;1.22;94.77
18533;BME280;9396;51.510;11.934;2023-03-16T01:18:28;101014.06;;;0.36;94.62
18533;BME280;9396;51.510;11.934;2023-03-16T01:20:58;101162.19;;;1.28;94.34
18533;BME280;9396;51.510;11.934;2023-03-16T01:23:26;101176.50;;;1.21;93.83
18533;BME280;9396;51.510;11.934;2023-03-16T01:25:54;101160.16;;;0.99;94.43
18533;BME280;9396;51.510;11.934;2023-03-16T01:28:22;101166.00;;;1.04;93.63
18533;BME280;9396;51.510;11.934;2023-03-16T01:30:49;101163.38;;;1.04;93.74
18533;BME280;9396;51.510;11.934;2023-03-16T01:33:19;101160.16;;;0.99;93.35
18533;BME280;9396;51.510;11.934;2023-03-16T01:35:51;101157.44;;;0.83;94.59
18533;BME280;9396;51.510;11.934;2023-03-16T01:38:19;101152.75;;;0.71;94.61
18533;BME280;9396;51.510;11.934;2023-03-16T01:40:46;101160.19;;;0.80;95.06
18533;BME280;9396;51.510;11.934;2023-03-16T01:43:15;101156.13;;;0.92;94.54
18533;BME280;9396;51.510;11.934;2023-03-16T01:46:14;101159.19;;;0.83;94.49
18533;BME280;9396;51.510;11.934;2023-03-16T01:48:47;101150.28;;;0.87;94.30
18533;BME280;9396;51.510;11.934;2023-03-16T01:51:19;101151.97;;;0.88;94.71
18533;BME280;9396;51.510;11.934;2023-03-16T01:53:49;101152.56;;;0.76;94.19
18533;BME280;9396;51.510;11.934;2023-03-16T01:56:21;101158.69;;;0.75;95.46
18533;BME280;9396;51.510;11.934;2023-03-16T01:58:51;101149.78;;;0.79;94.30
18533;BME280;9396;51.510;11.934;2023-03-16T02:01:23;101148.56;;;0.86;95.31
18533;BME280;9396;51.510;11.934;2023-03-16T02:03:56;101145.66;;;0.92;94.58
18533;BME280;9396;51.510;11.934;2023-03-16T02:06:25;101138.72;;;0.91;94.83
18533;BME280;9396;51.510;11.934;2023-03-16T02:08:54;101146.72;;;0.88;94.18
18533;BME280;9396;51.510;11.934;2023-03-16T02:11:22;101140.72;;;0.86;93.94
18533;BME280;9396;51.510;11.934;2023-03-16T02:13:49;101138.41;;;0.80;93.31
18533;BME280;9396;51.510;11.934;2023-03-16T02:16:17;101124.81;;;0.72;94.12
18533;BME280;9396;51.510;11.934;2023-03-16T02:18:47;101142.09;;;0.76;94.48
18533;BME280;9396;51.510;11.934;2023-03-16T02:21:20;101145.47;;;0.78;94.62
18533;BME280;9396;51.510;11.934;2023-03-16T02:23:50;101138.44;;;0.78;93.86
18533;BME280;9396;51.510;11.934;2023-03-16T02:26:24;101141.94;;;0.79;93.85
18533;BME280;9396;51.510;11.934;2023-03-16T02:29:05;101144.28;;;0.66;94.17
18533;BME280;9396;51.510;11.934;2023-03-16T02:31:38;101139.56;;;0.74;94.30
18533;BME280;9396;51.510;11.934;2023-03-16T02:34:05;101145.59;;;0.75;94.09
18533;BME280;9396;51.510;11.934;2023-03-16T02:36:33;101149.41;;;0.51;95.02
18533;BME280;9396;51.510;11.934;2023-03-16T02:39:00;101144.41;;;0.28;94.94
18533;BME280;9396;51.510;11.934;2023-03-16T02:41:27;101147.22;;;0.42;95.05
18533;BME280;9396;51.510;11.934;2023-03-16T02:43:57;101149.34;;;0.34;95.31
18533;BME280;9396;51.510;11.934;2023-03-16T02:46:27;101150.34;;;0.50;95.12
18533;BME280;9396;51.510;11.934;2023-03-16T02:48:59;101155.84;;;0.25;96.82
18533;BME280;9396;51.510;11.934;2023-03-16T02:51:28;101149.47;;;0.31;96.08
18533;BME280;9396;51.510;11.934;2023-03-16T02:53:56;101152.25;;;0.28;95.21
18533;BME280;9396;51.510;11.934;2023-03-16T02:56:23;101153.06;;;0.47;95.05
18533;BME280;9396;51.510;11.934;2023-03-16T02:58:49;101150.97;;;0.55;95.55
18533;BME280;9396;51.510;11.934;2023-03-16T03:01:16;101148.34;;;0.55;95.27
18533;BME280;9396;51.510;11.934;2023-03-16T03:03:43;101150.66;;;0.61;94.05
18533;BME280;9396;51.510;11.934;2023-03-16T03:06:11;101148.94;;;0.78;94.66
18533;BME280;9396;51.510;11.934;2023-03-16T03:08:37;101147.09;;;0.80;93.75
18533;BME280;9396;51.510;11.934;2023-03-16T03:11:04;101154.56;;;0.88;93.13
18533;BME280;9396;51.510;11.934;2023-03-16T03:13:31;101156.06;;;0.93;92.58
18533;BME280;9396;51.510;11.934;2023-03-16T03:15:57;101170.78;;;0.96;92.40
18533;BME280;9396;51.510;11.934;2023-03-16T03:18:24;101175.09;;;0.97;92.33
18533;BME280;9396;51.510;11.934;2023-03-16T03:20:51;101171.53;;;0.98;93.23
18533;BME280;9396;51.510;11.934;2023-03-16T03:23:19;101170.28;;;0.88;92.09
18533;BME280;9396;51.510;11.934;2023-03-16T03:25:45;101162.28;;;0.91;91.99
18533;BME280;9396;51.510;11.934;2023-03-16T03:28:12;101171.59;;;0.96;92.67
18533;BME280;9396;51.510;11.934;2023-03-16T03:30:39;101170.28;;;0.88;91.70
18533;BME280;9396;51.510;11.934;2023-03-16T03:33:05;101170.09;;;0.74;91.84
18533;BME280;9396;51.510;11.934;2023-03-16T03:35:32;101176.44;;;0.51;92.48
18533;BME280;9396;51.510;11.934;2023-03-16T03:37:59;101176.00;;;0.42;93.16
18533;BME280;9396;51.510;11.934;2023-03-16T03:40:27;101176.06;;;0.22;94.10
18533;BME280;9396;51.510;11.934;2023-03-16T03:42:53;101165.59;;;0.22;93.78
18533;BME280;9396;51.510;11.934;2023-03-16T03:45:20;101163.91;;;0.21;93.57
18533;BME280;9396;51.510;11.934;2023-03-16T03:47:47;101172.03;;;0.33;93.65
18533;BME280;9396;51.510;11.934;2023-03-16T03:50:13;101163.00;;;0.40;93.68
18533;BME280;9396;51.510;11.934;2023-03-16T03:52:40;101152.31;;;0.26;94.71
18533;BME280;9396;51.510;11.934;2023-03-16T03:55:08;101158.09;;;0.33;94.04
18533;BME280;9396;51.510;11.934;2023-03-16T03:57:36;101156.91;;;0.40;94.49
18533;BME280;9396;51.510;11.934;2023-03-16T04:00:04;101144.31;;;0.48;94.35
18533;BME280;9396;51.510;11.934;2023-03-16T04:02:34;101159.41;;;0.43;94.12
18533;BME280;9396;51.510;11.934;2023-03-16T04:05:00;101162.75;;;0.45;93.84
18533;BME280;9396;51.510;11.934;2023-03-16T04:07:27;101157.53;;;0.45;93.15
18533;BME280;9396;51.510;11.934;2023-03-16T04:09:54;101148.63;;;0.49;93.85
18533;BME280;9396;51.510;11.934;2023-03-16T04:12:20;101160.72;;;0.33;93.57
18533;BME280;9396;51.510;11.934;2023-03-16T04:14:48;101157.41;;;0.11;94.14
18533;BME280;9396;51.510;11.934;2023-03-16T04:17:16;101161.84;;;0.09;94.86
18533;BME280;9396;51.510;11.934;2023-03-16T04:19:42;101157.88;;;0.19;93.92
18533;BME280;9396;51.510;11.934;2023-03-16T04:22:09;101154.41;;;0.18;94.49
18533;BME280;9396;51.510;11.934;2023-03-16T04:24:37;101161.03;;;0.27;94.58
18533;BME280;9396;51.510;11.934;2023-03-16T04:27:04;101156.69;;;0.44;94.00
18533;BME280;9396;51.510;11.934;2023-03-16T04:29:30;101160.84;;;0.48;93.61
18533;BME280;9396;51.510;11.934;2023-03-16T04:31:58;101154.84;;;0.28;93.21
18533;BME280;9396;51.510;11.934;2023-03-16T04:34:25;101154.44;;;0.37;93.87
18533;BME280;9396;51.510;11.934;2023-03-16T04:36:52;101149.06;;;0.40;93.93
18533;BME280;9396;51.510;11.934;2023-03-16T04:39:19;101148.94;;;0.43;93.46
18533;BME280;9396;51.510;11.934;2023-03-16T04:41:46;101152.81;;;0.53;92.79
18533;BME280;9396;51.510;11.934;2023-03-16T04:44:13;101162.72;;;0.46;92.28
18533;BME280;9396;51.510;11.934;2023-03-16T04:46:39;101157.88;;;0.19;93.18
18533;BME280;9396;51.510;11.934;2023-03-16T04:49:07;101157.56;;;0.26;93.58
18533;BME280;9396;51.510;11.934;2023-03-16T04:51:34;101153.31;;;0.42;93.59
18533;BME280;9396;51.510;11.934;2023-03-16T04:54:02;101162.50;;;0.51;92.65
18533;BME280;9396;51.510;11.934;2023-03-16T04:56:29;101166.50;;;0.58;92.56
18533;BME280;9396;51.510;11.934;2023-03-16T04:58:55;101151.44;;;0.63;92.18
18533;BME280;9396;51.510;11.934;2023-03-16T05:01:22;101161.00;;;0.64;91.41
18533;BME280;9396;51.510;11.934;2023-03-16T05:03:49;101162.34;;;0.54;91.73
18533;BME280;9396;51.510;11.934;2023-03-16T05:06:18;101069.00;;;0.00;90.90
18533;BME280;9396;51.510;11.934;2023-03-16T05:08:45;101166.38;;;0.42;92.03
18533;BME280;9396;51.510;11.934;2023-03-16T05:11:11;101155.06;;;0.42;91.90
18533;BME280;9396;51.510;11.934;2023-03-16T05:13:38;101166.03;;;0.50;91.09
18533;BME280;9396;51.510;11.934;2023-03-16T05:16:05;101166.59;;;0.56;91.24
18533;BME280;9396;51.510;11.934;2023-03-16T05:18:32;101157.53;;;0.63;91.42
18533;BME280;9396;51.510;11.934;2023-03-16T05:20:59;101160.50;;;0.56;90.05
18533;BME280;9396;51.510;11.934;2023-03-16T05:23:27;101168.41;;;0.36;90.87
18533;BME280;9396;51.510;11.934;2023-03-16T05:25:53;101170.41;;;0.31;90.69
18533;BME280;9396;51.510;11.934;2023-03-16T05:28:24;101164.91;;;0.37;91.25
18533;BME280;9396;51.510;11.934;2023-03-16T05:30:50;101163.63;;;0.45;91.28
18533;BME280;9396;51.510;11.934;2023-03-16T05:33:17;101167.16;;;0.44;90.88
18533;BME280;9396;51.510;11.934;2023-03-16T05:35:44;101174.44;;;0.38;90.44
18533;BME280;9396;51.510;11.934;2023-03-16T05:38:11;101170.25;;;0.15;91.45
18533;BME280;9396;51.510;11.934;2023-03-16T05:40:39;101173.09;;;0.11;92.02
18533;BME280;9396;51.510;11.934;2023-03-16T05:43:06;101171.75;;;0.21;91.50
18533;BME280;9396;51.510;11.934;2023-03-16T05:45:33;101179.75;;;0.36;92.20
18533;BME280;9396;51.510;11.934;2023-03-16T05:47:59;101182.56;;;0.50;91.88
18533;BME280;9396;51.510;11.934;2023-03-16T05:50:26;101185.75;;;0.57;91.44
18533;BME280;9396;51.510;11.934;2023-03-16T05:52:53;101187.44;;;0.58;91.54
18533;BME280;9396;51.510;11.934;2023-03-16T05:55:19;101184.56;;;0.64;91.88
18533;BME280;9396;51.510;11.934;2023-03-16T05:57:47;101192.25;;;0.67;90.47
18533;BME280;9396;51.510;11.934;2023-03-16T06:00:15;101193.25;;;0.64;91.12
18533;BME280;9396;51.510;11.934;2023-03-16T06:02:43;101191.47;;;0.65;90.58
18533;BME280;9396;51.510;11.934;2023-03-16T06:05:12;101194.25;;;0.62;90.93
18533;BME280;9396;51.510;11.934;2023-03-16T06:07:39;101191.31;;;0.68;91.19
18533;BME280;9396;51.510;11.934;2023-03-16T06:10:06;101194.28;;;0.79;91.80
18533;BME280;9396;51.510;11.934;2023-03-16T06:12:33;101064.16;;;0.10;91.78
18533;BME280;9396;51.510;11.934;2023-03-16T06:15:02;101192.16;;;0.87;91.89
18533;BME280;9396;51.510;11.934;2023-03-16T06:17:31;101185.84;;;0.91;91.56
18533;BME280;9396;51.510;11.934;2023-03-16T06:19:58;101190.56;;;1.01;92.13
18533;BME280;9396;51.510;11.934;2023-03-16T06:22:25;101185.03;;;1.07;91.01
18533;BME280;9396;51.510;11.934;2023-03-16T06:24:51;101187.19;;;0.99;92.00
18533;BME280;9396;51.510;11.934;2023-03-16T06:27:18;101188.34;;;0.94;92.24
18533;BME280;9396;51.510;11.934;2023-03-16T06:29:46;101186.50;;;0.96;92.60
18533;BME280;9396;51.510;11.934;2023-03-16T06:32:14;101192.19;;;1.04;92.52
18533;BME280;9396;51.510;11.934;2023-03-16T06:34:41;101190.50;;;1.03;92.32
18533;BME280;9396;51.510;11.934;2023-03-16T06:37:08;101195.06;;;0.99;92.85
18533;BME280;9396;51.510;11.934;2023-03-16T06:39:35;101189.16;;;0.94;92.64
18533;BME280;9396;51.510;11.934;2023-03-16T06:42:01;101193.19;;;1.01;93.24
18533;BME280;9396;51.510;11.934;2023-03-16T06:44:29;101197.22;;;1.08;94.34
18533;BME280;9396;51.510;11.934;2023-03-16T06:46:56;101195.22;;;1.31;93.76
18533;BME280;9396;51.510;11.934;2023-03-16T06:49:24;101207.50;;;1.47;93.42
18533;BME280;9396;51.510;11.934;2023-03-16T06:51:51;101193.94;;;1.56;94.22
18533;BME280;9396;51.510;11.934;2023-03-16T06:54:18;101194.03;;;1.55;93.83
18533;BME280;9396;51.510;11.934;2023-03-16T06:56:44;101192.00;;;1.77;93.74
18533;BME280;9396;51.510;11.934;2023-03-16T06:59:11;101189.78;;;2.66;97.42
18533;BME280;9396;51.510;11.934;2023-03-16T07:01:37;101174.47;;;3.78;94.79
18533;BME280;9396;51.510;11.934;2023-03-16T07:04:04;101175.41;;;4.48;88.10
18533;BME280;9396;51.510;11.934;2023-03-16T07:06:32;101167.50;;;4.88;85.17
18533;BME280;9396;51.510;11.934;2023-03-16T07:08:59;101169.03;;;5.31;84.17
18533;BME280;9396;51.510;11.934;2023-03-16T07:11:25;101173.75;;;5.78;82.99
18533;BME280;9396;51.510;11.934;2023-03-16T07:13:52;101172.50;;;6.34;80.43
18533;BME280;9396;51.510;11.934;2023-03-16T07:16:19;101169.41;;;6.89;78.84
18533;BME280;9396;51.510;11.934;2023-03-16T07:18:46;101165.44;;;7.18;77.57
18533;BME280;9396;51.510;11.934;2023-03-16T07:21:12;101164.78;;;7.27;76.89
18533;BME280;9396;51.510;11.934;2023-03-16T07:23:41;101162.72;;;7.54;76.22
18533;BME280;9396;51.510;11.934;2023-03-16T07:26:07;101159.25;;;7.30;76.19
18533;BME280;9396;51.510;11.934;2023-03-16T07:28:36;101155.66;;;6.84;76.42
18533;BME280;9396;51.510;11.934;2023-03-16T07:31:03;101162.81;;;6.71;78.85
18533;BME280;9396;51.510;11.934;2023-03-16T07:33:30;101174.72;;;6.40;78.47
18533;BME280;9396;51.510;11.934;2023-03-16T07:35:56;101168.47;;;6.28;79.52
18533;BME280;9396;51.510;11.934;2023-03-16T07:38:23;101166.56;;;6.30;78.56
18533;BME280;9396;51.510;11.934;2023-03-16T07:40:51;101168.59;;;6.27;79.12
18533;BME280;9396;51.510;11.934;2023-03-16T07:43:18;101174.63;;;5.91;78.71
18533;BME280;9396;51.510;11.934;2023-03-16T07:45:47;101176.03;;;5.58;79.93
18533;BME280;9396;51.510;11.934;2023-03-16T07:48:13;101177.09;;;5.42;80.83
18533;BME280;9396;51.510;11.934;2023-03-16T07:50:40;101178.63;;;5.06;82.75
18533;BME280;9396;51.510;11.934;2023-03-16T07:53:07;101174.91;;;4.96;83.29
18533;BME280;9396;51.510;11.934;2023-03-16T07:55:34;101183.91;;;5.06;82.94
18533;BME280;9396;51.510;11.934;2023-03-16T07:58:04;101188.69;;;5.13;82.66
18533;BME280;9396;51.510;11.934;2023-03-16T08:00:31;101192.88;;;5.03;82.76
18533;BME280;9396;51.510;11.934;2023-03-16T08:02:57;101194.59;;;4.90;83.09
18533;BME280;9396;51.510;11.934;2023-03-16T08:05:24;101195.25;;;4.94;82.70
18533;BME280;9396;51.510;11.934;2023-03-16T08:07:51;101193.69;;;5.04;82.76
18533;BME280;9396;51.510;11.934;2023-03-16T08:10:18;101197.94;;;5.06;82.89
18533;BME280;9396;51.510;11.934;2023-03-16T08:12:45;101200.84;;;5.16;82.63
18533;BME280;9396;51.510;11.934;2023-03-16T08:15:13;101202.25;;;4.81;83.01
18533;BME280;9396;51.510;11.934;2023-03-16T08:17:39;101203.47;;;4.89;83.38
18533;BME280;9396;51.510;11.934;2023-03-16T08:20:08;101206.94;;;4.90;83.91
18533;BME280;9396;51.510;11.934;2023-03-16T08:22:38;101213.94;;;4.77;84.16
18533;BME280;9396;51.510;11.934;2023-03-16T08:25:07;101205.22;;;4.62;84.27
18533;BME280;9396;51.510;11.934;2023-03-16T08:27:35;101208.84;;;4.74;84.20
18533;BME280;9396;51.510;11.934;2023-03-16T08:30:03;101210.34;;;4.78;83.89
18533;BME280;9396;51.510;11.934;2023-03-16T08:32:32;101047.16;;;3.95;84.45
18533;BME280;9396;51.510;11.934;2023-03-16T08:34:58;101197.31;;;5.03;82.81
18533;BME280;9396;51.510;11.934;2023-03-16T08:37:27;101206.41;;;5.11;82.99
18533;BME280;9396;51.510;11.934;2023-03-16T08:39:53;101208.84;;;5.41;80.84
18533;BME280;9396;51.510;11.934;2023-03-16T08:42:20;101210.53;;;5.42;81.32
18533;BME280;9396;51.510;11.934;2023-03-16T08:44:47;101207.50;;;5.73;83.39
18533;BME280;9396;51.510;11.934;2023-03-16T08:47:15;101204.81;;;5.75;82.93
18533;BME280;9396;51.510;11.934;2023-03-16T08:49:43;101204.41;;;5.93;80.97
18533;BME280;9396;51.510;11.934;2023-03-16T08:52:10;101204.31;;;6.20;79.13
18533;BME280;9396;51.510;11.934;2023-03-16T08:54:37;101210.97;;;6.13;78.63
18533;BME280;9396;51.510;11.934;2023-03-16T08:57:04;101213.59;;;6.00;77.31
18533;BME280;9396;51.510;11.934;2023-03-16T08:59:30;101211.81;;;5.88;77.32
18533;BME280;9396;51.510;11.934;2023-03-16T09:01:57;101207.97;;;5.80;76.46
18533;BME280;9396;51.510;11.934;2023-03-16T09:04:24;101207.91;;;6.06;77.94
18533;BME280;9396;51.510;11.934;2023-03-16T09:06:53;101198.72;;;6.24;77.71
18533;BME280;9396;51.510;11.934;2023-03-16T09:09:20;101202.72;;;6.42;76.14
18533;BME280;9396;51.510;11.934;2023-03-16T09:11:47;101196.88;;;6.50;76.59
18533;BME280;9396;51.510;11.934;2023-03-16T09:14:14;101084.53;;;5.45;73.97
18533;BME280;9396;51.510;11.934;2023-03-16T09:16:41;101035.88;;;5.12;75.58
18533;BME280;9396;51.510;11.934;2023-03-16T09:19:08;101193.63;;;6.09;75.44
18533;BME280;9396;51.510;11.934;2023-03-16T09:21:36;101028.09;;;5.23;74.91
18533;BME280;9396;51.510;11.934;2023-03-16T09:24:04;101191.09;;;6.07;73.16
18533;BME280;9396;51.510;11.934;2023-03-16T09:26:32;101191.63;;;6.25;74.02
18533;BME280;9396;51.510;11.934;2023-03-16T09:28:59;101183.38;;;6.42;74.05
18533;BME280;9396;51.510;11.934;2023-03-16T09:31:26;101190.97;;;6.46;73.56
18533;BME280;9396;51.510;11.934;2023-03-16T09:33:53;101195.88;;;6.76;74.45
18533;BME280;9396;51.510;11.934;2023-03-16T09:36:19;101189.38;;;6.93;73.04
18533;BME280;9396;51.510;11.934;2023-03-16T09:38:46;101195.00;;;6.88;70.56
18533;BME280;9396;51.510;11.934;2023-03-16T09:41:30;101190.41;;;7.03;68.17
18533;BME280;9396;51.510;11.934;2023-03-16T09:44:09;101194.75;;;6.91;68.48
18533;BME280;9396;51.510;11.934;2023-03-16T09:46:44;101197.47;;;7.02;69.95
18533;BME280;9396;51.510;11.934;2023-03-16T09:49:16;101193.25;;;7.00;67.11
18533;BME280;9396;51.510;11.934;2023-03-16T09:51:47;101199.00;;;6.94;69.66
18533;BME280;9396;51.510;11.934;2023-03-16T09:54:24;101195.34;;;7.07;70.03
18533;BME280;9396;51.510;11.934;2023-03-16T09:56:54;101189.19;;;7.07;70.64
18533;BME280;9396;51.510;11.934;2023-03-16T09:59:23;101198.06;;;7.18;65.71
18533;BME280;9396;51.510;11.934;2023-03-16T10:02:03;101191.16;;;7.16;64.69
18533;BME280;9396;51.510;11.934;2023-03-16T10:04:41;101193.91;;;6.91;66.95
18533;BME280;9396;51.510;11.934;2023-03-16T10:07:23;101187.78;;;7.14;66.22
18533;BME280;9396;51.510;11.934;2023-03-16T10:09:55;101187.59;;;7.17;67.38
18533;BME280;9396;51.510;11.934;2023-03-16T10:12:30;101182.13;;;7.31;67.41
18533;BME280;9396;51.510;11.934;2023-03-16T10:15:02;101184.47;;;7.23;67.92
18533;BME280;9396;51.510;11.934;2023-03-16T10:17:35;101178.72;;;7.29;67.39
18533;BME280;9396;51.510;11.934;2023-03-16T10:20:06;101178.84;;;7.04;66.53
18533;BME280;9396;51.510;11.934;2023-03-16T10:22:36;101177.38;;;7.00;68.12
18533;BME280;9396;51.510;11.934;2023-03-16T10:25:08;101078.31;;;6.45;69.29
18533;BME280;9396;51.510;11.934;2023-03-16T10:27:40;101168.22;;;6.93;68.38
18533;BME280;9396;51.510;11.934;2023-03-16T10:30:18;101166.03;;;6.87;67.79
18533;BME280;9396;51.510;11.934;2023-03-16T10:32:47;101162.38;;;7.00;68.88
18533;BME280;9396;51.510;11.934;2023-03-16T10:35:25;101161.75;;;6.97;66.95
18533;BME280;9396;51.510;11.934;2023-03-16T10:37:54;101159.28;;;7.06;67.15
18533;BME280;9396;51.510;11.934;2023-03-16T10:40:21;101158.25;;;7.20;68.63
18533;BME280;9396;51.510;11.934;2023-03-16T10:42:49;101160.28;;;7.16;65.80
18533;BME280;9396;51.510;11.934;2023-03-16T10:45:26;101146.00;;;7.19;62.69
18533;BME280;9396;51.510;11.934;2023-03-16T10:48:04;101151.22;;;7.31;66.06
18533;BME280;9396;51.510;11.934;2023-03-16T10:50:31;101147.47;;;7.34;66.68
18533;BME280;9396;51.510;11.934;2023-03-16T10:52:59;101143.59;;;7.27;67.24
18533;BME280;9396;51.510;11.934;2023-03-16T10:55:28;101141.94;;;7.37;68.79
18533;BME280;9396;51.510;11.934;2023-03-16T10:57:58;101143.78;;;7.36;68.87
18533;BME280;9396;51.510;11.934;2023-03-16T11:00:27;101138.31;;;7.27;68.44
18533;BME280;9396;51.510;11.934;2023-03-16T11:02:58;101131.88;;;7.42;70.35
18533;BME280;9396;51.510;11.934;2023-03-16T11:05:28;101124.16;;;7.39;70.27
18533;BME280;9396;51.510;11.934;2023-03-16T11:07:59;101124.19;;;7.50;70.18
18533;BME280;9396;51.510;11.934;2023-03-16T11:10:29;101121.81;;;7.58;68.25
18533;BME280;9396;51.510;11.934;2023-03-16T11:13:10;101111.31;;;7.45;67.47
18533;BME280;9396;51.510;11.934;2023-03-16T11:15:44;101121.25;;;7.31;67.03
18533;BME280;9396;51.510;11.934;2023-03-16T11:18:27;101119.84;;;7.38;68.75
18533;BME280;9396;51.510;11.934;2023-03-16T11:20:55;101118.84;;;7.28;68.47
18533;BME280;9396;51.510;11.934;2023-03-16T11:23:29;101116.25;;;7.50;70.53
18533;BME280;9396;51.510;11.934;2023-03-16T11:25:59;101113.28;;;7.54;67.85
18533;BME280;9396;51.510;11.934;2023-03-16T11:28:35;101108.34;;;7.61;67.78
18533;BME280;9396;51.510;11.934;2023-03-16T11:31:12;101109.06;;;7.63;69.38
18533;BME280;9396;51.510;11.934;2023-03-16T11:33:42;101109.38;;;7.36;66.40
18533;BME280;9396;51.510;11.934;2023-03-16T11:36:18;101110.78;;;7.29;67.35
18533;BME280;9396;51.510;11.934;2023-03-16T11:39:00;101105.25;;;7.32;66.18
18533;BME280;9396;51.510;11.934;2023-03-16T11:41:38;101106.13;;;7.33;67.00
18533;BME280;9396;51.510;11.934;2023-03-16T11:44:17;101095.44;;;7.45;66.96
18533;BME280;9396;51.510;11.934;2023-03-16T11:46:51;101103.38;;;7.45;67.97
18533;BME280;9396;51.510;11.934;2023-03-16T11:49:40;101094.75;;;7.54;66.48
18533;BME280;9396;51.510;11.934;2023-03-16T11:52:19;101092.44;;;7.50;63.42
18533;BME280;9396;51.510;11.934;2023-03-16T11:54:55;101084.38;;;7.51;63.63
18533;BME280;9396;51.510;11.934;2023-03-16T11:57:30;101086.16;;;7.40;62.02
18533;BME280;9396;51.510;11.934;2023-03-16T12:00:12;101075.78;;;7.37;63.14
18533;BME280;9396;51.510;11.934;2023-03-16T12:02:54;101073.66;;;7.42;60.68
18533;BME280;9396;51.510;11.934;2023-03-16T12:05:35;101072.84;;;7.64;60.57
18533;BME280;9396;51.510;11.934;2023-03-16T12:08:14;101053.47;;;7.63;62.26
18533;BME280;9396;51.510;11.934;2023-03-16T12:10:49;101056.13;;;7.63;61.51
18533;BME280;9396;51.510;11.934;2023-03-16T12:13:27;101057.44;;;7.69;61.81
18533;BME280;9396;51.510;11.934;2023-03-16T12:16:02;101052.38;;;7.77;63.02
18533;BME280;9396;51.510;11.934;2023-03-16T12:18:38;101037.34;;;7.77;62.71
18533;BME280;9396;51.510;11.934;2023-03-16T12:21:12;101045.28;;;7.77;62.64
18533;BME280;9396;51.510;11.934;2023-03-16T12:23:45;101041.19;;;7.84;63.23
18533;BME280;9396;51.510;11.934;2023-03-16T12:26:15;101032.88;;;7.89;60.72
18533;BME280;9396;51.510;11.934;2023-03-16T12:28:43;101032.78;;;7.90;59.47
18533;BME280;9396;51.510;11.934;2023-03-16T12:31:14;101024.59;;;7.82;57.94
18533;BME280;9396;51.510;11.934;2023-03-16T12:33:52;101014.97;;;7.81;57.79
18533;BME280;9396;51.510;11.934;2023-03-16T12:36:37;100882.13;;;6.88;59.47
18533;BME280;9396;51.510;11.934;2023-03-16T12:39:13;101027.34;;;7.70;58.88
18533;BME280;9396;51.510;11.934;2023-03-16T12:41:52;101026.41;;;7.71;60.38
18533;BME280;9396;51.510;11.934;2023-03-16T12:44:30;101015.06;;;7.80;60.44
18533;BME280;9396;51.510;11.934;2023-03-16T12:47:07;101009.41;;;7.84;60.06
18533;BME280;9396;51.510;11.934;2023-03-16T12:49:39;101006.38;;;7.89;60.75
18533;BME280;9396;51.510;11.934;2023-03-16T12:52:08;101008.19;;;7.99;61.30
18533;BME280;9396;51.510;11.934;2023-03-16T12:54:48;101004.34;;;7.92;58.97
18533;BME280;9396;51.510;11.934;2023-03-16T12:57:16;101000.22;;;7.99;60.14
18533;BME280;9396;51.510;11.934;2023-03-16T12:59:44;100842.22;;;7.02;58.89
18533;BME280;9396;51.510;11.934;2023-03-16T13:02:16;100882.63;;;7.26;59.37
18533;BME280;9396;51.510;11.934;2023-03-16T13:04:45;100980.53;;;7.81;61.68
18533;BME280;9396;51.510;11.934;2023-03-16T13:07:18;100994.47;;;7.94;61.42
18533;BME280;9396;51.510;11.934;2023-03-16T13:09:50;100989.28;;;7.93;60.40
18533;BME280;9396;51.510;11.934;2023-03-16T13:12:23;100988.22;;;7.95;61.10